sensor_id;sensor_type;location;lat;lon;timestamp;P1;durP1;ratioP1;P2;durP2;ratioP2
81672;SDS011;71092;41.158;-8.680;2023-12-20T00:01:36;18.27;;;10.68;;
81672;SDS011;71092;41.158;-8.680;2023-12-20T00:06:29;16.80;;;10.68;;
81672;SDS011;71092;41.158;-8.680;2023-12-20T00:08:55;20.67;;;11.85;;
81672;SDS011;71092;41.158;-8.680;2023-12-20T00:13:47;19.80;;;13.02;;
81672;SDS011;71092;41.158;-8.680;2023-12-20T00:16:13;20.33;;;12.32;;
81672;SDS011;71092;41.158;-8.680;2023-12-20T00:18:38;16.60;;;10.93;;
81672;SDS011;71092;41.158;-8.680;2023-12-20T00:23:30;15.82;;;9.45;;
81672;SDS011;71092;41.158;-8.680;2023-12-20T00:28:22;17.02;;;11.52;;
81672;SDS011;71092;41.158;-8.680;2023-12-20T00:30:48;19.52;;;12.13;;
81672;SDS011;71092;41.158;-8.680;2023-12-20T00:33:14;17.58;;;10.00;;
81672;SDS011;71092;41.158;-8.680;2023-12-20T00:38:06;19.00;;;10.63;;
81672;SDS011;71092;41.158;-8.680;2023-12-20T00:40:32;14.60;;;10.13;;
81672;SDS011;71092;41.158;-8.680;2023-12-20T00:42:59;18.33;;;11.38;;
81672;SDS011;71092;41.158;-8.680;2023-12-20T00:45:24;16.75;;;11.38;;
81672;SDS011;71092;41.158;-8.680;2023-12-20T00:50:16;16.10;;;11.45;;
81672;SDS011;71092;41.158;-8.680;2023-12-20T00:55:08;15.65;;;9.63;;
81672;SDS011;71092;41.158;-8.680;2023-12-20T00:59:59;15.57;;;11.00;;
81672;SDS011;71092;41.158;-8.680;2023-12-20T01:04:51;18.77;;;11.30;;
81672;SDS011;71092;41.158;-8.680;2023-12-20T01:09:42;15.50;;;9.27;;
81672;SDS011;71092;41.158;-8.680;2023-12-20T01:14:34;16.60;;;11.02;;
81672;SDS011;71092;41.158;-8.680;2023-12-20T01:17:01;16.95;;;10.05;;
81672;SDS011;71092;41.158;-8.680;2023-12-20T01:19:27;15.65;;;11.23;;
81672;SDS011;71092;41.158;-8.680;2023-12-20T01:21:53;16.75;;;11.38;;
81672;SDS011;71092;41.158;-8.680;2023-12-20T01:24:19;14.30;;;10.60;;
81672;SDS011;71092;41.158;-8.680;2023-12-20T01:29:11;16.75;;;10.30;;
81672;SDS011;71092;41.158;-8.680;2023-12-20T01:31:37;18.05;;;11.98;;
81672;SDS011;71092;41.158;-8.680;2023-12-20T01:34:03;18.23;;;11.98;;
81672;SDS011;71092;41.158;-8.680;2023-12-20T01:38:55;18.70;;;10.77;;
81672;SDS011;71092;41.158;-8.680;2023-12-20T01:43:47;19.50;;;10.55;;
81672;SDS011;71092;41.158;-8.680;2023-12-20T01:48:38;16.30;;;10.05;;
81672;SDS011;71092;41.158;-8.680;2023-12-20T01:53:30;14.90;;;9.77;;
81672;SDS011;71092;41.158;-8.680;2023-12-20T01:55:58;17.27;;;10.65;;
81672;SDS011;71092;41.158;-8.680;2023-12-20T01:58:24;16.17;;;10.68;;
81672;SDS011;71092;41.158;-8.680;2023-12-20T02:00:50;17.30;;;11.30;;
81672;SDS011;71092;41.158;-8.680;2023-12-20T02:03:17;18.08;;;12.68;;
81672;SDS011;71092;41.158;-8.680;2023-12-20T02:05:43;16.38;;;10.38;;
81672;SDS011;71092;41.158;-8.680;2023-12-20T02:08:10;18.15;;;11.18;;
81672;SDS011;71092;41.158;-8.680;2023-12-20T02:10:36;16.90;;;10.70;;
81672;SDS011;71092;41.158;-8.680;2023-12-20T02:13:03;16.38;;;10.68;;
81672;SDS011;71092;41.158;-8.680;2023-12-20T02:15:29;18.00;;;11.80;;
81672;SDS011;71092;41.158;-8.680;2023-12-20T02:17:55;15.27;;;10.52;;
81672;SDS011;71092;41.158;-8.680;2023-12-20T02:20:22;19.45;;;12.75;;
81672;SDS011;71092;41.158;-8.680;2023-12-20T02:22:48;16.10;;;10.68;;
81672;SDS011;71092;41.158;-8.680;2023-12-20T02:27:40;17.77;;;11.05;;
81672;SDS011;71092;41.158;-8.680;2023-12-20T02:32:32;17.83;;;11.27;;
81672;SDS011;71092;41.158;-8.680;2023-12-20T02:34:58;18.95;;;11.85;;
81672;SDS011;71092;41.158;-8.680;2023-12-20T02:37:24;18.17;;;13.05;;
81672;SDS011;71092;41.158;-8.680;2023-12-20T02:42:15;18.42;;;11.90;;
81672;SDS011;71092;41.158;-8.680;2023-12-20T02:47:07;18.30;;;11.65;;
81672;SDS011;71092;41.158;-8.680;2023-12-20T02:51:58;17.70;;;11.73;;
81672;SDS011;71092;41.158;-8.680;2023-12-20T02:56:50;19.42;;;12.13;;
81672;SDS011;71092;41.158;-8.680;2023-12-20T03:01:45;19.30;;;11.95;;
81672;SDS011;71092;41.158;-8.680;2023-12-20T03:04:11;18.85;;;11.40;;
81672;SDS011;71092;41.158;-8.680;2023-12-20T03:06:38;19.15;;;12.02;;
81672;SDS011;71092;41.158;-8.680;2023-12-20T03:09:04;17.55;;;10.82;;
81672;SDS011;71092;41.158;-8.680;2023-12-20T03:11:30;17.50;;;13.48;;
81672;SDS011;71092;41.158;-8.680;2023-12-20T03:13:56;19.05;;;10.63;;
81672;SDS011;71092;41.158;-8.680;2023-12-20T03:16:22;20.67;;;12.35;;
81672;SDS011;71092;41.158;-8.680;2023-12-20T03:18:48;17.73;;;13.27;;
81672;SDS011;71092;41.158;-8.680;2023-12-20T03:21:14;18.88;;;11.77;;
81672;SDS011;71092;41.158;-8.680;2023-12-20T03:26:07;18.58;;;11.60;;
81672;SDS011;71092;41.158;-8.680;2023-12-20T03:28:33;17.95;;;12.35;;
81672;SDS011;71092;41.158;-8.680;2023-12-20T03:30:59;19.95;;;13.20;;
81672;SDS011;71092;41.158;-8.680;2023-12-20T03:35:51;19.20;;;11.73;;
81672;SDS011;71092;41.158;-8.680;2023-12-20T03:40:42;18.95;;;11.98;;
81672;SDS011;71092;41.158;-8.680;2023-12-20T03:43:08;19.20;;;11.88;;
81672;SDS011;71092;41.158;-8.680;2023-12-20T03:45:34;20.00;;;14.00;;
81672;SDS011;71092;41.158;-8.680;2023-12-20T03:50:26;17.52;;;11.80;;
81672;SDS011;71092;41.158;-8.680;2023-12-20T03:55:18;20.02;;;12.25;;
81672;SDS011;71092;41.158;-8.680;2023-12-20T04:00:10;19.98;;;13.43;;
81672;SDS011;71092;41.158;-8.680;2023-12-20T04:02:39;19.40;;;12.10;;
81672;SDS011;71092;41.158;-8.680;2023-12-20T04:05:06;19.60;;;13.38;;
81672;SDS011;71092;41.158;-8.680;2023-12-20T04:07:32;18.42;;;12.25;;
81672;SDS011;71092;41.158;-8.680;2023-12-20T04:09:58;19.58;;;12.82;;
81672;SDS011;71092;41.158;-8.680;2023-12-20T04:12:24;21.45;;;12.68;;
81672;SDS011;71092;41.158;-8.680;2023-12-20T04:17:16;21.98;;;12.10;;
81672;SDS011;71092;41.158;-8.680;2023-12-20T04:22:08;18.65;;;12.30;;
81672;SDS011;71092;41.158;-8.680;2023-12-20T04:24:34;18.55;;;12.20;;
81672;SDS011;71092;41.158;-8.680;2023-12-20T04:29:26;18.95;;;12.32;;
81672;SDS011;71092;41.158;-8.680;2023-12-20T04:31:52;21.23;;;14.13;;
81672;SDS011;71092;41.158;-8.680;2023-12-20T04:36:44;20.60;;;14.27;;
81672;SDS011;71092;41.158;-8.680;2023-12-20T04:41:36;20.38;;;13.45;;
81672;SDS011;71092;41.158;-8.680;2023-12-20T04:46:28;19.75;;;12.45;;
81672;SDS011;71092;41.158;-8.680;2023-12-20T04:48:54;19.75;;;12.90;;
81672;SDS011;71092;41.158;-8.680;2023-12-20T04:53:45;19.48;;;12.23;;
81672;SDS011;71092;41.158;-8.680;2023-12-20T04:58:37;20.27;;;12.52;;
81672;SDS011;71092;41.158;-8.680;2023-12-20T05:03:29;20.42;;;14.85;;
81672;SDS011;71092;41.158;-8.680;2023-12-20T05:05:55;21.00;;;14.52;;
81672;SDS011;71092;41.158;-8.680;2023-12-20T05:10:46;21.52;;;13.27;;
81672;SDS011;71092;41.158;-8.680;2023-12-20T05:15:38;21.80;;;13.35;;
81672;SDS011;71092;41.158;-8.680;2023-12-20T05:20:30;18.90;;;12.68;;
81672;SDS011;71092;41.158;-8.680;2023-12-20T05:22:56;20.83;;;15.13;;
81672;SDS011;71092;41.158;-8.680;2023-12-20T05:27:47;21.00;;;13.25;;
81672;SDS011;71092;41.158;-8.680;2023-12-20T05:30:13;21.55;;;15.13;;
81672;SDS011;71092;41.158;-8.680;2023-12-20T05:32:39;21.65;;;12.98;;
81672;SDS011;71092;41.158;-8.680;2023-12-20T05:37:32;20.15;;;14.25;;
81672;SDS011;71092;41.158;-8.680;2023-12-20T05:39:58;20.48;;;12.70;;
81672;SDS011;71092;41.158;-8.680;2023-12-20T05:44:49;18.63;;;12.35;;
81672;SDS011;71092;41.158;-8.680;2023-12-20T05:49:41;22.52;;;15.32;;
81672;SDS011;71092;41.158;-8.680;2023-12-20T05:52:08;20.35;;;14.32;;
81672;SDS011;71092;41.158;-8.680;2023-12-20T05:54:34;23.10;;;14.27;;
81672;SDS011;71092;41.158;-8.680;2023-12-20T05:57:00;22.05;;;15.15;;
81672;SDS011;71092;41.158;-8.680;2023-12-20T05:59:26;20.20;;;13.35;;
81672;SDS011;71092;41.158;-8.680;2023-12-20T06:01:52;24.38;;;14.88;;
81672;SDS011;71092;41.158;-8.680;2023-12-20T06:04:18;24.25;;;13.80;;
81672;SDS011;71092;41.158;-8.680;2023-12-20T06:09:09;18.63;;;12.82;;
81672;SDS011;71092;41.158;-8.680;2023-12-20T06:11:36;22.13;;;13.63;;
81672;SDS011;71092;41.158;-8.680;2023-12-20T06:14:02;20.73;;;13.68;;
81672;SDS011;71092;41.158;-8.680;2023-12-20T06:16:27;20.15;;;13.30;;
81672;SDS011;71092;41.158;-8.680;2023-12-20T06:21:19;19.55;;;13.23;;
81672;SDS011;71092;41.158;-8.680;2023-12-20T06:26:11;19.40;;;13.95;;
81672;SDS011;71092;41.158;-8.680;2023-12-20T06:31:02;19.92;;;13.05;;
81672;SDS011;71092;41.158;-8.680;2023-12-20T06:33:29;20.33;;;13.30;;
81672;SDS011;71092;41.158;-8.680;2023-12-20T06:35:56;22.20;;;16.00;;
81672;SDS011;71092;41.158;-8.680;2023-12-20T06:38:22;20.30;;;12.68;;
81672;SDS011;71092;41.158;-8.680;2023-12-20T06:43:14;20.60;;;14.73;;
81672;SDS011;71092;41.158;-8.680;2023-12-20T06:48:06;21.73;;;11.32;;
81672;SDS011;71092;41.158;-8.680;2023-12-20T06:52:58;18.15;;;9.73;;
81672;SDS011;71092;41.158;-8.680;2023-12-20T06:57:49;14.02;;;9.98;;
81672;SDS011;71092;41.158;-8.680;2023-12-20T07:02:41;15.88;;;9.90;;
81672;SDS011;71092;41.158;-8.680;2023-12-20T07:07:33;14.68;;;10.10;;
81672;SDS011;71092;41.158;-8.680;2023-12-20T07:12:24;15.00;;;9.52;;
81672;SDS011;71092;41.158;-8.680;2023-12-20T07:14:50;14.55;;;9.20;;
81672;SDS011;71092;41.158;-8.680;2023-12-20T07:17:16;16.25;;;10.23;;
81672;SDS011;71092;41.158;-8.680;2023-12-20T07:19:42;17.55;;;10.98;;
81672;SDS011;71092;41.158;-8.680;2023-12-20T07:22:08;14.13;;;10.27;;
81672;SDS011;71092;41.158;-8.680;2023-12-20T07:24:34;14.23;;;9.60;;
81672;SDS011;71092;41.158;-8.680;2023-12-20T07:27:00;14.90;;;9.27;;
81672;SDS011;71092;41.158;-8.680;2023-12-20T07:29:26;14.07;;;9.10;;
81672;SDS011;71092;41.158;-8.680;2023-12-20T07:34:19;13.50;;;8.40;;
81672;SDS011;71092;41.158;-8.680;2023-12-20T07:36:46;13.75;;;9.80;;
81672;SDS011;71092;41.158;-8.680;2023-12-20T07:39:13;13.32;;;8.52;;
81672;SDS011;71092;41.158;-8.680;2023-12-20T07:41:39;13.07;;;8.77;;
81672;SDS011;71092;41.158;-8.680;2023-12-20T07:44:06;12.13;;;7.97;;
81672;SDS011;71092;41.158;-8.680;2023-12-20T07:46:32;11.23;;;7.75;;
81672;SDS011;71092;41.158;-8.680;2023-12-20T07:48:58;11.63;;;8.05;;
81672;SDS011;71092;41.158;-8.680;2023-12-20T07:51:23;12.35;;;8.98;;
81672;SDS011;71092;41.158;-8.680;2023-12-20T07:53:49;13.13;;;9.02;;
81672;SDS011;71092;41.158;-8.680;2023-12-20T07:56:17;11.00;;;7.57;;
81672;SDS011;71092;41.158;-8.680;2023-12-20T07:58:44;13.10;;;7.95;;
81672;SDS011;71092;41.158;-8.680;2023-12-20T08:01:10;11.23;;;7.70;;
81672;SDS011;71092;41.158;-8.680;2023-12-20T08:03:37;11.82;;;7.05;;
81672;SDS011;71092;41.158;-8.680;2023-12-20T08:06:03;10.45;;;7.15;;
81672;SDS011;71092;41.158;-8.680;2023-12-20T08:08:30;11.98;;;7.50;;
81672;SDS011;71092;41.158;-8.680;2023-12-20T08:10:56;9.70;;;6.97;;
81672;SDS011;71092;41.158;-8.680;2023-12-20T08:13:26;10.63;;;7.32;;
81672;SDS011;71092;41.158;-8.680;2023-12-20T08:15:52;10.93;;;7.25;;
81672;SDS011;71092;41.158;-8.680;2023-12-20T08:18:19;10.43;;;6.30;;
81672;SDS011;71092;41.158;-8.680;2023-12-20T08:20:44;10.75;;;7.38;;
81672;SDS011;71092;41.158;-8.680;2023-12-20T08:23:10;10.57;;;7.82;;
81672;SDS011;71092;41.158;-8.680;2023-12-20T08:25:36;11.13;;;6.80;;
81672;SDS011;71092;41.158;-8.680;2023-12-20T08:28:02;9.63;;;6.60;;
81672;SDS011;71092;41.158;-8.680;2023-12-20T08:30:29;9.68;;;7.32;;
81672;SDS011;71092;41.158;-8.680;2023-12-20T08:32:56;9.27;;;6.45;;
81672;SDS011;71092;41.158;-8.680;2023-12-20T08:35:25;9.75;;;6.43;;
81672;SDS011;71092;41.158;-8.680;2023-12-20T08:37:51;10.57;;;6.88;;
81672;SDS011;71092;41.158;-8.680;2023-12-20T08:40:18;9.05;;;6.55;;
81672;SDS011;71092;41.158;-8.680;2023-12-20T08:42:43;9.13;;;6.07;;
81672;SDS011;71092;41.158;-8.680;2023-12-20T08:45:09;11.65;;;6.53;;
81672;SDS011;71092;41.158;-8.680;2023-12-20T08:47:35;8.10;;;5.90;;
81672;SDS011;71092;41.158;-8.680;2023-12-20T08:50:02;11.05;;;7.90;;
81672;SDS011;71092;41.158;-8.680;2023-12-20T08:52:28;10.05;;;7.30;;
81672;SDS011;71092;41.158;-8.680;2023-12-20T08:54:54;10.80;;;6.82;;
81672;SDS011;71092;41.158;-8.680;2023-12-20T08:57:21;10.15;;;7.05;;
81672;SDS011;71092;41.158;-8.680;2023-12-20T08:59:48;10.20;;;6.97;;
81672;SDS011;71092;41.158;-8.680;2023-12-20T09:02:14;9.93;;;7.13;;
81672;SDS011;71092;41.158;-8.680;2023-12-20T09:04:41;9.98;;;6.45;;
81672;SDS011;71092;41.158;-8.680;2023-12-20T09:07:07;11.65;;;8.40;;
81672;SDS011;71092;41.158;-8.680;2023-12-20T09:09:39;10.25;;;7.18;;
81672;SDS011;71092;41.158;-8.680;2023-12-20T09:12:05;11.50;;;7.25;;
81672;SDS011;71092;41.158;-8.680;2023-12-20T09:14:31;11.57;;;7.70;;
81672;SDS011;71092;41.158;-8.680;2023-12-20T09:16:57;9.93;;;6.90;;
81672;SDS011;71092;41.158;-8.680;2023-12-20T09:19:23;11.45;;;7.45;;
81672;SDS011;71092;41.158;-8.680;2023-12-20T09:21:49;10.32;;;6.80;;
81672;SDS011;71092;41.158;-8.680;2023-12-20T09:24:15;12.50;;;7.57;;
81672;SDS011;71092;41.158;-8.680;2023-12-20T09:26:41;12.07;;;7.85;;
81672;SDS011;71092;41.158;-8.680;2023-12-20T09:29:08;10.35;;;7.10;;
81672;SDS011;71092;41.158;-8.680;2023-12-20T09:31:36;11.85;;;7.40;;
81672;SDS011;71092;41.158;-8.680;2023-12-20T09:34:02;12.77;;;8.43;;
81672;SDS011;71092;41.158;-8.680;2023-12-20T09:36:28;11.55;;;8.90;;
81672;SDS011;71092;41.158;-8.680;2023-12-20T09:38:56;10.20;;;7.15;;
81672;SDS011;71092;41.158;-8.680;2023-12-20T09:41:23;9.82;;;6.82;;
81672;SDS011;71092;41.158;-8.680;2023-12-20T09:43:49;11.18;;;7.05;;
81672;SDS011;71092;41.158;-8.680;2023-12-20T09:46:17;9.25;;;6.57;;
81672;SDS011;71092;41.158;-8.680;2023-12-20T09:48:47;10.02;;;7.22;;
81672;SDS011;71092;41.158;-8.680;2023-12-20T09:51:13;11.98;;;7.45;;
81672;SDS011;71092;41.158;-8.680;2023-12-20T09:53:41;9.23;;;7.13;;
81672;SDS011;71092;41.158;-8.680;2023-12-20T09:56:07;10.27;;;7.22;;
81672;SDS011;71092;41.158;-8.680;2023-12-20T09:58:35;9.82;;;7.53;;
81672;SDS011;71092;41.158;-8.680;2023-12-20T10:01:02;9.38;;;6.47;;
81672;SDS011;71092;41.158;-8.680;2023-12-20T10:03:28;10.10;;;6.60;;
81672;SDS011;71092;41.158;-8.680;2023-12-20T10:05:56;9.43;;;6.20;;
81672;SDS011;71092;41.158;-8.680;2023-12-20T10:08:23;10.00;;;6.32;;
81672;SDS011;71092;41.158;-8.680;2023-12-20T10:10:50;10.80;;;7.47;;
81672;SDS011;71092;41.158;-8.680;2023-12-20T10:13:16;10.13;;;6.72;;
81672;SDS011;71092;41.158;-8.680;2023-12-20T10:15:42;7.70;;;5.35;;
81672;SDS011;71092;41.158;-8.680;2023-12-20T10:18:07;8.77;;;5.90;;
81672;SDS011;71092;41.158;-8.680;2023-12-20T10:20:33;8.80;;;5.80;;
81672;SDS011;71092;41.158;-8.680;2023-12-20T10:22:59;8.88;;;6.07;;
81672;SDS011;71092;41.158;-8.680;2023-12-20T10:25:26;9.23;;;5.88;;
81672;SDS011;71092;41.158;-8.680;2023-12-20T10:30:42;8.77;;;6.03;;
81672;SDS011;71092;41.158;-8.680;2023-12-20T10:33:08;10.05;;;6.28;;
81672;SDS011;71092;41.158;-8.680;2023-12-20T10:35:35;8.25;;;6.13;;
81672;SDS011;71092;41.158;-8.680;2023-12-20T10:38:03;9.82;;;5.72;;
81672;SDS011;71092;41.158;-8.680;2023-12-20T10:40:31;8.65;;;5.50;;
81672;SDS011;71092;41.158;-8.680;2023-12-20T10:42:59;9.25;;;5.80;;
81672;SDS011;71092;41.158;-8.680;2023-12-20T10:45:26;10.27;;;5.78;;
81672;SDS011;71092;41.158;-8.680;2023-12-20T10:47:52;8.73;;;5.68;;
81672;SDS011;71092;41.158;-8.680;2023-12-20T10:50:19;8.90;;;6.53;;
81672;SDS011;71092;41.158;-8.680;2023-12-20T10:52:46;7.32;;;5.25;;
81672;SDS011;71092;41.158;-8.680;2023-12-20T10:55:13;7.22;;;5.07;;
81672;SDS011;71092;41.158;-8.680;2023-12-20T10:57:39;9.13;;;5.60;;
81672;SDS011;71092;41.158;-8.680;2023-12-20T11:00:05;7.68;;;4.75;;
81672;SDS011;71092;41.158;-8.680;2023-12-20T11:02:33;8.52;;;5.65;;
81672;SDS011;71092;41.158;-8.680;2023-12-20T11:05:09;7.70;;;4.90;;
81672;SDS011;71092;41.158;-8.680;2023-12-20T11:07:43;6.65;;;4.55;;
81672;SDS011;71092;41.158;-8.680;2023-12-20T11:10:19;6.70;;;3.88;;
81672;SDS011;71092;41.158;-8.680;2023-12-20T11:12:48;6.68;;;4.88;;
81672;SDS011;71092;41.158;-8.680;2023-12-20T11:15:21;7.18;;;5.35;;
81672;SDS011;71092;41.158;-8.680;2023-12-20T11:17:54;7.53;;;4.55;;
81672;SDS011;71092;41.158;-8.680;2023-12-20T11:20:23;7.40;;;5.00;;
81672;SDS011;71092;41.158;-8.680;2023-12-20T11:22:55;6.60;;;4.43;;
81672;SDS011;71092;41.158;-8.680;2023-12-20T11:28:06;7.88;;;4.90;;
81672;SDS011;71092;41.158;-8.680;2023-12-20T11:30:41;7.68;;;4.93;;
81672;SDS011;71092;41.158;-8.680;2023-12-20T11:33:09;8.20;;;5.57;;
81672;SDS011;71092;41.158;-8.680;2023-12-20T11:35:35;8.23;;;4.45;;
81672;SDS011;71092;41.158;-8.680;2023-12-20T11:38:02;6.97;;;4.43;;
81672;SDS011;71092;41.158;-8.680;2023-12-20T11:40:28;6.60;;;4.00;;
81672;SDS011;71092;41.158;-8.680;2023-12-20T11:42:59;7.28;;;4.82;;
81672;SDS011;71092;41.158;-8.680;2023-12-20T11:45:25;6.95;;;4.18;;
81672;SDS011;71092;41.158;-8.680;2023-12-20T11:47:52;7.72;;;5.07;;
81672;SDS011;71092;41.158;-8.680;2023-12-20T11:50:23;6.45;;;4.65;;
81672;SDS011;71092;41.158;-8.680;2023-12-20T11:52:49;7.07;;;4.68;;
81672;SDS011;71092;41.158;-8.680;2023-12-20T11:55:17;6.70;;;3.95;;
81672;SDS011;71092;41.158;-8.680;2023-12-20T11:57:43;6.55;;;4.07;;
81672;SDS011;71092;41.158;-8.680;2023-12-20T12:00:10;7.53;;;4.47;;
81672;SDS011;71092;41.158;-8.680;2023-12-20T12:02:39;7.43;;;4.63;;
81672;SDS011;71092;41.158;-8.680;2023-12-20T12:05:05;6.57;;;4.32;;
81672;SDS011;71092;41.158;-8.680;2023-12-20T12:07:32;7.88;;;4.78;;
81672;SDS011;71092;41.158;-8.680;2023-12-20T12:09:58;8.80;;;4.88;;
81672;SDS011;71092;41.158;-8.680;2023-12-20T12:12:24;7.32;;;5.10;;
81672;SDS011;71092;41.158;-8.680;2023-12-20T12:14:52;7.03;;;4.20;;
81672;SDS011;71092;41.158;-8.680;2023-12-20T12:17:20;6.85;;;3.85;;
81672;SDS011;71092;41.158;-8.680;2023-12-20T12:19:45;6.15;;;4.10;;
81672;SDS011;71092;41.158;-8.680;2023-12-20T12:22:15;7.50;;;4.47;;
81672;SDS011;71092;41.158;-8.680;2023-12-20T12:24:46;6.63;;;3.92;;
81672;SDS011;71092;41.158;-8.680;2023-12-20T12:27:12;6.63;;;4.60;;
81672;SDS011;71092;41.158;-8.680;2023-12-20T12:29:38;6.95;;;4.03;;
81672;SDS011;71092;41.158;-8.680;2023-12-20T12:32:05;7.22;;;3.92;;
81672;SDS011;71092;41.158;-8.680;2023-12-20T12:34:37;5.65;;;3.55;;
81672;SDS011;71092;41.158;-8.680;2023-12-20T12:37:03;6.07;;;4.57;;
81672;SDS011;71092;41.158;-8.680;2023-12-20T12:39:30;6.53;;;4.00;;
81672;SDS011;71092;41.158;-8.680;2023-12-20T12:41:56;6.32;;;3.72;;
81672;SDS011;71092;41.158;-8.680;2023-12-20T12:44:25;6.70;;;3.80;;
81672;SDS011;71092;41.158;-8.680;2023-12-20T12:46:52;5.93;;;3.63;;
81672;SDS011;71092;41.158;-8.680;2023-12-20T12:49:21;7.85;;;4.43;;
81672;SDS011;71092;41.158;-8.680;2023-12-20T12:51:47;6.05;;;3.50;;
81672;SDS011;71092;41.158;-8.680;2023-12-20T12:54:14;7.07;;;4.03;;
81672;SDS011;71092;41.158;-8.680;2023-12-20T12:56:42;5.35;;;3.50;;
81672;SDS011;71092;41.158;-8.680;2023-12-20T12:59:08;5.47;;;3.28;;
81672;SDS011;71092;41.158;-8.680;2023-12-20T13:01:34;7.63;;;3.92;;
81672;SDS011;71092;41.158;-8.680;2023-12-20T13:04:00;7.55;;;3.85;;
81672;SDS011;71092;41.158;-8.680;2023-12-20T13:06:29;7.60;;;3.90;;
81672;SDS011;71092;41.158;-8.680;2023-12-20T13:08:55;7.10;;;4.30;;
81672;SDS011;71092;41.158;-8.680;2023-12-20T13:11:21;6.68;;;3.85;;
81672;SDS011;71092;41.158;-8.680;2023-12-20T13:13:47;6.78;;;4.03;;
81672;SDS011;71092;41.158;-8.680;2023-12-20T13:16:12;8.93;;;4.47;;
81672;SDS011;71092;41.158;-8.680;2023-12-20T13:18:39;9.65;;;4.20;;
81672;SDS011;71092;41.158;-8.680;2023-12-20T13:21:08;11.88;;;4.25;;
81672;SDS011;71092;41.158;-8.680;2023-12-20T13:23:34;9.90;;;4.30;;
81672;SDS011;71092;41.158;-8.680;2023-12-20T13:26:00;10.05;;;4.55;;
81672;SDS011;71092;41.158;-8.680;2023-12-20T13:28:26;9.20;;;4.00;;
81672;SDS011;71092;41.158;-8.680;2023-12-20T13:30:52;7.38;;;4.68;;
81672;SDS011;71092;41.158;-8.680;2023-12-20T13:33:17;8.05;;;4.65;;
81672;SDS011;71092;41.158;-8.680;2023-12-20T13:35:43;8.38;;;4.43;;
81672;SDS011;71092;41.158;-8.680;2023-12-20T13:38:09;7.63;;;4.28;;
81672;SDS011;71092;41.158;-8.680;2023-12-20T13:40:35;8.73;;;5.15;;
81672;SDS011;71092;41.158;-8.680;2023-12-20T13:43:01;12.23;;;5.68;;
81672;SDS011;71092;41.158;-8.680;2023-12-20T13:45:28;8.23;;;4.35;;
81672;SDS011;71092;41.158;-8.680;2023-12-20T13:47:54;7.07;;;4.25;;
81672;SDS011;71092;41.158;-8.680;2023-12-20T13:50:20;7.53;;;4.82;;
81672;SDS011;71092;41.158;-8.680;2023-12-20T13:52:47;7.38;;;4.35;;
81672;SDS011;71092;41.158;-8.680;2023-12-20T13:55:13;10.23;;;4.55;;
81672;SDS011;71092;41.158;-8.680;2023-12-20T13:57:39;8.77;;;5.32;;
81672;SDS011;71092;41.158;-8.680;2023-12-20T14:00:07;7.38;;;5.13;;
81672;SDS011;71092;41.158;-8.680;2023-12-20T14:02:40;6.70;;;5.20;;
81672;SDS011;71092;41.158;-8.680;2023-12-20T14:05:07;12.32;;;6.30;;
81672;SDS011;71092;41.158;-8.680;2023-12-20T14:07:34;9.73;;;4.70;;
81672;SDS011;71092;41.158;-8.680;2023-12-20T14:10:00;9.23;;;4.63;;
81672;SDS011;71092;41.158;-8.680;2023-12-20T14:12:26;8.20;;;4.03;;
81672;SDS011;71092;41.158;-8.680;2023-12-20T14:14:51;7.55;;;4.70;;
81672;SDS011;71092;41.158;-8.680;2023-12-20T14:17:17;7.95;;;4.32;;
81672;SDS011;71092;41.158;-8.680;2023-12-20T14:19:43;8.50;;;4.65;;
81672;SDS011;71092;41.158;-8.680;2023-12-20T14:22:09;8.93;;;3.92;;
81672;SDS011;71092;41.158;-8.680;2023-12-20T14:24:35;7.28;;;4.18;;
81672;SDS011;71092;41.158;-8.680;2023-12-20T14:27:02;6.45;;;4.53;;
81672;SDS011;71092;41.158;-8.680;2023-12-20T14:29:27;7.35;;;4.70;;
81672;SDS011;71092;41.158;-8.680;2023-12-20T14:31:53;6.43;;;4.30;;
81672;SDS011;71092;41.158;-8.680;2023-12-20T14:34:19;6.05;;;3.90;;
81672;SDS011;71092;41.158;-8.680;2023-12-20T14:36:45;7.75;;;4.50;;
81672;SDS011;71092;41.158;-8.680;2023-12-20T14:39:11;5.63;;;3.75;;
81672;SDS011;71092;41.158;-8.680;2023-12-20T14:41:38;6.20;;;4.40;;
81672;SDS011;71092;41.158;-8.680;2023-12-20T14:44:05;6.95;;;3.95;;
81672;SDS011;71092;41.158;-8.680;2023-12-20T14:46:32;6.78;;;4.00;;
81672;SDS011;71092;41.158;-8.680;2023-12-20T14:48:58;7.50;;;4.32;;
81672;SDS011;71092;41.158;-8.680;2023-12-20T14:51:23;7.32;;;4.80;;
81672;SDS011;71092;41.158;-8.680;2023-12-20T14:53:50;6.20;;;3.42;;
81672;SDS011;71092;41.158;-8.680;2023-12-20T14:56:16;6.78;;;3.75;;
81672;SDS011;71092;41.158;-8.680;2023-12-20T14:58:42;7.13;;;4.07;;
81672;SDS011;71092;41.158;-8.680;2023-12-20T15:01:08;5.30;;;2.92;;
81672;SDS011;71092;41.158;-8.680;2023-12-20T15:03:34;8.52;;;3.33;;
81672;SDS011;71092;41.158;-8.680;2023-12-20T15:06:00;10.32;;;3.25;;
81672;SDS011;71092;41.158;-8.680;2023-12-20T15:08:26;8.60;;;4.15;;
81672;SDS011;71092;41.158;-8.680;2023-12-20T15:10:52;5.07;;;3.33;;
81672;SDS011;71092;41.158;-8.680;2023-12-20T15:13:18;7.20;;;3.38;;
81672;SDS011;71092;41.158;-8.680;2023-12-20T15:15:44;8.15;;;3.22;;
81672;SDS011;71092;41.158;-8.680;2023-12-20T15:18:10;5.95;;;3.08;;
81672;SDS011;71092;41.158;-8.680;2023-12-20T15:20:35;5.80;;;3.10;;
81672;SDS011;71092;41.158;-8.680;2023-12-20T15:23:02;7.95;;;3.35;;
81672;SDS011;71092;41.158;-8.680;2023-12-20T15:25:33;6.25;;;3.30;;
81672;SDS011;71092;41.158;-8.680;2023-12-20T15:27:59;7.20;;;3.28;;
81672;SDS011;71092;41.158;-8.680;2023-12-20T15:30:25;4.85;;;3.10;;
81672;SDS011;71092;41.158;-8.680;2023-12-20T15:32:51;5.32;;;2.72;;
81672;SDS011;71092;41.158;-8.680;2023-12-20T15:35:16;6.97;;;3.80;;
81672;SDS011;71092;41.158;-8.680;2023-12-20T15:37:42;6.28;;;3.53;;
81672;SDS011;71092;41.158;-8.680;2023-12-20T15:40:09;11.32;;;4.50;;
81672;SDS011;71092;41.158;-8.680;2023-12-20T15:42:36;7.40;;;3.28;;
81672;SDS011;71092;41.158;-8.680;2023-12-20T15:45:04;7.43;;;3.33;;
81672;SDS011;71092;41.158;-8.680;2023-12-20T15:47:30;7.55;;;3.80;;
81672;SDS011;71092;41.158;-8.680;2023-12-20T15:49:56;8.82;;;2.60;;
81672;SDS011;71092;41.158;-8.680;2023-12-20T15:52:22;9.20;;;3.33;;
81672;SDS011;71092;41.158;-8.680;2023-12-20T15:54:49;6.28;;;3.08;;
81672;SDS011;71092;41.158;-8.680;2023-12-20T15:57:15;7.00;;;3.35;;
81672;SDS011;71092;41.158;-8.680;2023-12-20T15:59:41;6.40;;;3.72;;
81672;SDS011;71092;41.158;-8.680;2023-12-20T16:02:07;7.80;;;3.30;;
81672;SDS011;71092;41.158;-8.680;2023-12-20T16:04:33;7.68;;;3.00;;
81672;SDS011;71092;41.158;-8.680;2023-12-20T16:06:59;8.13;;;2.90;;
81672;SDS011;71092;41.158;-8.680;2023-12-20T16:09:25;7.57;;;2.75;;
81672;SDS011;71092;41.158;-8.680;2023-12-20T16:11:51;6.55;;;2.95;;
81672;SDS011;71092;41.158;-8.680;2023-12-20T16:14:17;5.22;;;2.50;;
81672;SDS011;71092;41.158;-8.680;2023-12-20T16:16:47;6.28;;;2.85;;
81672;SDS011;71092;41.158;-8.680;2023-12-20T16:19:13;6.55;;;3.15;;
81672;SDS011;71092;41.158;-8.680;2023-12-20T16:21:39;5.97;;;2.63;;
81672;SDS011;71092;41.158;-8.680;2023-12-20T16:24:05;5.65;;;2.60;;
81672;SDS011;71092;41.158;-8.680;2023-12-20T16:26:32;8.77;;;2.97;;
81672;SDS011;71092;41.158;-8.680;2023-12-20T16:28:58;4.63;;;2.92;;
81672;SDS011;71092;41.158;-8.680;2023-12-20T16:31:23;5.40;;;2.72;;
81672;SDS011;71092;41.158;-8.680;2023-12-20T16:33:49;4.60;;;2.50;;
81672;SDS011;71092;41.158;-8.680;2023-12-20T16:36:15;5.10;;;2.17;;
81672;SDS011;71092;41.158;-8.680;2023-12-20T16:38:41;6.40;;;2.38;;
81672;SDS011;71092;41.158;-8.680;2023-12-20T16:41:07;5.55;;;2.20;;
81672;SDS011;71092;41.158;-8.680;2023-12-20T16:43:33;5.78;;;2.30;;